Time;durP1;ratioP1;P1;durP2;ratioP2;P2;SDS_P1;SDS_P2;PMS_P1;PMS_P2;Temp;Humidity;BMP_temperature;BMP_pressure;BME280_temperature;BME280_humidity;BME280_pressure;Samples;Min_cycle;Max_cycle;Signal;HPM_P1;HPM_P2
2021/08/12 00:02:05;;;;;;;22.40;12.15;;;;;;;22.16;66.91;98780.97;4934173;29;20047;-73
2021/08/12 00:04:32;;;;;;;23.02;13.30;;;;;;;22.14;66.86;98769.44;4934692;29;20142;-72
2021/08/12 00:06:58;;;;;;;22.88;13.40;;;;;;;22.09;67.13;98767.78;4933263;29;20059;-71
2021/08/12 00:09:24;;;;;;;22.25;12.73;;;;;;;22.10;67.20;98769.38;4917063;29;20043;-71
2021/08/12 00:11:51;;;;;;;24.20;13.10;;;;;;;22.00;67.33;98758.91;4935921;29;20051;-71
2021/08/12 00:14:17;;;;;;;26.85;12.98;;;;;;;22.03;67.60;98763.72;4931067;29;20134;-71
2021/08/12 00:16:44;;;;;;;26.45;13.27;;;;;;;21.95;67.46;98748.94;4931235;29;20048;-71
2021/08/12 00:19:13;;;;;;;22.02;13.32;;;;;;;22.00;67.67;98733.84;4933698;29;20051;-72
2021/08/12 00:21:41;;;;;;;19.08;12.18;;;;;;;22.00;67.58;98728.28;4916761;29;20059;-71
2021/08/12 00:24:07;;;;;;;20.85;12.90;;;;;;;22.02;67.28;98723.97;4917878;29;20047;-71
2021/08/12 00:26:33;;;;;;;24.63;12.40;;;;;;;22.03;67.68;98733.91;4933360;29;20047;-72
2021/08/12 00:29:04;;;;;;;20.83;12.48;;;;;;;22.01;67.51;98727.94;4931623;29;20047;-71
2021/08/12 00:31:30;;;;;;;20.13;11.90;;;;;;;22.03;67.55;98725.56;4934222;29;20040;-72
2021/08/12 00:33:56;;;;;;;23.50;11.98;;;;;;;22.14;67.43;98730.47;4933867;29;20138;-72
2021/08/12 00:36:22;;;;;;;20.98;11.95;;;;;;;22.11;67.36;98718.09;4933731;29;20134;-71
2021/08/12 00:38:48;;;;;;;27.60;13.00;;;;;;;22.16;67.30;98712.19;4917579;29;20126;-72
2021/08/12 00:41:15;;;;;;;18.95;12.90;;;;;;;22.19;67.32;98721.78;4931921;29;20047;-72
2021/08/12 00:43:41;;;;;;;19.63;13.18;;;;;;;22.19;67.26;98710.63;4917773;29;20043;-70
2021/08/12 00:46:09;;;;;;;22.33;12.35;;;;;;;22.18;67.33;98701.50;4932608;29;20043;-71
2021/08/12 00:48:37;;;;;;;16.17;10.10;;;;;;;22.31;66.80;98690.09;4931105;29;20094;-71
2021/08/12 00:51:03;;;;;;;18.70;11.98;;;;;;;22.41;66.70;98671.91;4934282;29;20055;-72
2021/08/12 00:53:33;;;;;;;19.98;12.35;;;;;;;22.49;66.42;98681.94;4927519;29;20076;-72
2021/08/12 00:55:59;;;;;;;21.52;12.75;;;;;;;22.46;66.58;98683.47;4932403;29;20048;-72
2021/08/12 00:58:25;;;;;;;26.50;13.77;;;;;;;22.33;67.36;98688.53;4930075;29;20099;-72
2021/08/12 01:00:52;;;;;;;22.95;13.60;;;;;;;22.28;67.07;98686.09;4916624;29;20164;-72
2021/08/12 01:03:20;;;;;;;31.23;13.98;;;;;;;22.23;67.38;98694.78;4948245;29;20044;-72
2021/08/12 01:05:51;;;;;;;25.27;13.90;;;;;;;22.18;67.39;98707.06;4928213;29;20123;-72
2021/08/12 01:08:33;;;;;;;25.60;14.20;;;;;;;22.14;67.72;98706.19;4929517;29;20071;-71
2021/08/12 01:11:06;;;;;;;20.67;14.13;;;;;;;21.99;67.94;98716.38;4931930;29;20063;-72
2021/08/12 01:13:46;;;;;;;21.58;14.50;;;;;;;21.88;68.54;98719.03;4917462;29;20051;-72
2021/08/12 01:16:16;;;;;;;20.92;13.60;;;;;;;21.89;68.44;98728.97;4939168;29;20062;-71
2021/08/12 01:18:53;;;;;;;20.58;13.98;;;;;;;21.81;68.57;98718.91;4916150;29;20047;-70
2021/08/12 01:21:36;;;;;;;20.40;13.63;;;;;;;21.76;68.82;98717.25;4932934;29;20040;-71
2021/08/12 01:24:09;;;;;;;17.50;12.70;;;;;;;21.77;68.83;98701.38;4915670;29;20047;-69
2021/08/12 01:26:40;;;;;;;20.33;13.18;;;;;;;21.83;68.60;98682.38;4914911;29;20052;-70
2021/08/12 01:29:10;;;;;;;24.65;12.50;;;;;;;21.90;68.66;98688.84;4930934;29;20056;-72
2021/08/12 01:32:01;;;;;;;22.80;12.82;;;;;;;21.94;68.68;98692.47;4900651;29;20382;-72
2021/08/12 01:34:45;;;;;;;20.15;12.77;;;;;;;21.96;68.67;98690.09;4947126;28;20054;-71
2021/08/12 01:37:14;;;;;;;21.52;13.15;;;;;;;22.01;68.21;98677.84;4931004;29;20060;-72
2021/08/12 01:39:41;;;;;;;18.42;12.35;;;;;;;21.95;68.41;98663.47;4932605;29;20130;-72
2021/08/12 01:42:10;;;;;;;19.83;12.75;;;;;;;22.02;68.06;98657.19;4915475;29;20047;-71
2021/08/12 01:44:40;;;;;;;17.83;11.70;;;;;;;22.13;67.72;98662.84;4914605;29;20059;-72
2021/08/12 01:47:10;;;;;;;17.40;12.48;;;;;;;22.07;68.12;98670.75;4915633;29;20052;-72
2021/08/12 01:49:38;;;;;;;;;;;;;;;22.05;68.31;98666.75;4916094;29;20044;-72
2021/08/12 01:52:06;;;;;;;17.33;11.38;;;;;;;22.00;68.75;98659.53;4931708;29;19950;-72
2021/08/12 01:54:35;;;;;;;17.17;11.80;;;;;;;22.00;68.39;98655.94;4929900;29;20032;-71
2021/08/12 01:57:03;;;;;;;15.88;11.65;;;;;;;22.06;68.34;98651.66;4932677;29;20040;-72
2021/08/12 01:59:31;;;;;;;17.58;10.88;;;;;;;22.18;67.81;98651.41;4916124;29;20048;-71
2021/08/12 02:01:57;;;;;;;15.50;11.07;;;;;;;22.31;67.26;98637.19;4933394;29;20147;-71
2021/08/12 02:04:24;;;;;;;17.07;12.47;;;;;;;22.30;67.73;98635.59;4930418;29;20055;-72
2021/08/12 02:06:51;;;;;;;16.15;11.52;;;;;;;22.29;67.33;98640.38;4931221;29;20134;-71
2021/08/12 02:09:21;;;;;;;27.13;12.77;;;;;;;22.28;67.73;98640.75;4932153;29;20051;-70
2021/08/12 02:11:47;;;;;;;18.15;12.35;;;;;;;22.24;67.56;98640.69;4932971;29;20047;-71
2021/08/12 02:14:14;;;;;;;22.75;13.30;;;;;;;22.21;67.92;98647.03;4931314;29;20058;-71
2021/08/12 02:16:40;;;;;;;20.88;13.23;;;;;;;22.13;68.27;98646.16;4931440;29;20043;-72
2021/08/12 02:19:07;;;;;;;21.30;12.63;;;;;;;22.13;68.26;98645.38;4931625;29;20516;-71
2021/08/12 02:21:40;;;;;;;23.90;14.68;;;;;;;22.10;68.33;98652.50;4931518;29;20044;-72
2021/08/12 02:24:10;;;;;;;19.55;14.27;;;;;;;22.06;68.44;98654.44;4932918;29;20067;-72
2021/08/12 02:26:44;;;;;;;23.90;14.63;;;;;;;22.10;68.04;98644.16;4932451;29;20081;-71
2021/08/12 02:29:13;;;;;;;22.65;14.25;;;;;;;22.18;68.10;98636.66;4916069;29;20067;-70
2021/08/12 02:31:43;;;;;;;21.13;13.35;;;;;;;22.19;68.06;98638.28;4914679;29;20511;-72
2021/08/12 02:34:10;;;;;;;21.33;14.80;;;;;;;22.17;68.33;98641.44;4915264;29;20076;-71
2021/08/12 02:36:37;;;;;;;;;;;;;;;22.12;68.33;98647.34;4932355;29;20575;-70
2021/08/12 02:39:05;;;;;;;31.50;21.85;;;;;;;22.09;68.34;98626.66;4948044;29;19934;-72
2021/08/12 02:41:32;;;;;;;41.60;29.75;;;;;;;22.11;68.34;98642.97;4935345;29;20103;-71
2021/08/12 02:44:01;;;;;;;31.05;20.75;;;;;;;22.09;68.31;98639.75;4934031;29;20071;-71
2021/08/12 02:46:29;;;;;;;28.80;19.08;;;;;;;22.08;68.52;98632.59;4935880;29;20055;-71
2021/08/12 02:48:58;;;;;;;29.48;21.05;;;;;;;21.94;68.72;98617.34;4918862;29;20577;-71
2021/08/12 02:51:26;;;;;;;30.33;19.48;;;;;;;21.97;68.53;98624.13;4931965;29;20043;-70
2021/08/12 02:53:54;;;;;;;27.15;20.13;;;;;;;21.93;68.73;98626.06;4948774;29;20517;-71
2021/08/12 02:56:23;;;;;;;30.95;19.08;;;;;;;21.92;69.03;98633.63;4920756;29;20044;-71
2021/08/12 02:58:52;;;;;;;31.45;21.25;;;;;;;21.92;69.31;98622.50;4904614;29;20043;-71
2021/08/12 03:01:20;;;;;;;27.92;18.95;;;;;;;21.96;69.18;98622.53;4935861;29;20055;-71
2021/08/12 03:03:48;;;;;;;36.72;20.98;;;;;;;21.96;69.21;98619.75;4936234;29;20043;-71
2021/08/12 03:06:19;;;;;;;29.60;19.27;;;;;;;21.99;68.62;98620.94;4934994;29;20091;-76
2021/08/12 03:08:49;;;;;;;29.27;19.80;;;;;;;21.89;69.10;98616.88;4955517;28;20075;-76
2021/08/12 03:11:18;;;;;;;28.13;19.48;;;;;;;21.90;69.34;98624.03;4921173;29;20086;-76
2021/08/12 03:13:47;;;;;;;30.63;19.35;;;;;;;21.84;69.51;98611.66;4918795;29;20052;-76
2021/08/12 03:16:14;;;;;;;30.50;19.60;;;;;;;21.83;69.55;98627.53;4898600;29;20071;-75
2021/08/12 03:18:43;;;;;;;28.60;19.48;;;;;;;21.83;69.69;98646.22;4914946;29;20051;-75
2021/08/12 03:21:10;;;;;;;28.80;18.92;;;;;;;21.82;69.33;98642.63;4948212;28;20554;-76
2021/08/12 03:23:37;;;;;;;28.38;19.65;;;;;;;21.81;69.28;98633.50;4934533;29;20051;-77
2021/08/12 03:26:04;;;;;;;28.13;19.02;;;;;;;21.86;69.53;98646.28;4918311;29;20042;-76
2021/08/12 03:28:32;;;;;;;30.92;19.42;;;;;;;21.78;69.67;98641.78;4903908;29;20091;-74
2021/08/12 03:30:58;;;;;;;31.85;19.42;;;;;;;21.79;69.75;98654.53;4899564;29;20524;-75
2021/08/12 03:33:26;;;;;;;30.33;19.77;;;;;;;21.68;69.71;98640.50;4936168;29;20055;-76
2021/08/12 03:35:55;;;;;;;30.30;19.15;;;;;;;21.79;69.71;98660.91;4903883;29;20052;-75
2021/08/12 03:38:23;;;;;;;29.05;19.65;;;;;;;21.68;70.16;98649.63;4950559;29;20071;-76
2021/08/12 03:40:50;;;;;;;30.55;18.75;;;;;;;21.72;70.22;98651.66;4918852;29;20397;-76
2021/08/12 03:43:17;;;;;;;27.70;17.88;;;;;;;21.76;69.97;98652.50;4920012;29;20453;-76
2021/08/12 03:45:43;;;;;;;26.40;17.25;;;;;;;21.71;70.15;98650.06;4935910;29;20044;-76
2021/08/12 03:48:09;;;;;;;24.43;16.87;;;;;;;21.79;70.23;98657.31;4925335;29;20082;-77
2021/08/12 03:50:36;;;;;;;23.17;16.10;;;;;;;21.82;69.77;98656.53;4919312;29;20514;-76
2021/08/12 03:53:03;;;;;;;24.85;17.17;;;;;;;21.73;69.86;98639.34;4914736;29;20469;-76
2021/08/12 03:55:30;;;;;;;25.88;17.20;;;;;;;21.83;70.12;98652.56;4885110;29;20066;-76
2021/08/12 03:57:56;;;;;;;23.48;16.52;;;;;;;21.86;70.15;98660.19;4932174;29;20420;-76
2021/08/12 04:00:23;;;;;;;24.83;16.58;;;;;;;21.76;70.11;98653.28;4919806;29;20059;-75
2021/08/12 04:02:50;;;;;;;27.80;17.02;;;;;;;21.80;70.30;98664.47;4933936;29;20044;-75
2021/08/12 04:05:17;;;;;;;21.90;15.90;;;;;;;21.81;70.33;98664.09;4934815;29;20051;-76
2021/08/12 04:07:55;;;;;;;23.27;16.15;;;;;;;21.77;70.35;98654.09;4934888;29;20059;-77
2021/08/12 04:10:22;;;;;;;23.63;16.85;;;;;;;21.84;70.43;98651.41;4935525;29;20122;-76
2021/08/12 04:12:50;;;;;;;22.40;16.02;;;;;;;21.76;70.13;98644.94;4903337;29;20047;-76
2021/08/12 04:18:12;;;;;;;25.52;16.83;;;;;;;21.77;70.63;98656.88;5305089;23;20063;-75
2021/08/12 04:20:39;;;;;;;24.27;16.00;;;;;;;21.76;70.42;98655.28;4946269;29;20047;-77
2021/08/12 04:23:05;;;;;;;22.37;15.83;;;;;;;21.71;70.60;98652.84;4940470;29;20047;-78
2021/08/12 04:25:40;;;;;;;23.58;15.65;;;;;;;21.76;70.34;98660.84;4917329;29;20584;-76
2021/08/12 04:28:10;;;;;;;24.85;16.55;;;;;;;21.59;70.53;98637.97;4915308;29;20150;-76
2021/08/12 04:30:36;;;;;;;23.90;15.65;;;;;;;21.59;70.73;98637.16;4914969;29;20084;-77
2021/08/12 04:33:03;;;;;;;24.30;15.25;;;;;;;21.75;70.64;98650.91;4916459;29;20058;-76
2021/08/12 04:35:30;;;;;;;21.33;15.80;;;;;;;21.73;70.80;98639.34;4901050;29;20436;-76
2021/08/12 04:37:56;;;;;;;22.63;15.00;;;;;;;21.79;70.31;98640.63;4916646;29;20428;-76
2021/08/12 04:40:22;;;;;;;24.20;14.45;;;;;;;21.84;70.63;98640.25;4901586;29;20044;-76
2021/08/12 04:42:50;;;;;;;24.90;13.55;;;;;;;21.91;70.34;98628.41;4916041;29;20078;-75
2021/08/12 04:45:17;;;;;;;23.38;14.70;;;;;;;21.90;70.43;98626.81;4914365;29;20047;-76
2021/08/12 04:47:43;;;;;;;21.90;13.73;;;;;;;21.92;70.47;98616.94;4933901;29;20047;-75
2021/08/12 04:50:12;;;;;;;19.40;12.73;;;;;;;21.96;70.45;98620.53;4930181;29;20056;-75
2021/08/12 04:52:41;;;;;;;23.17;13.15;;;;;;;22.00;70.25;98617.81;4933306;29;20142;-75
2021/08/12 04:55:09;;;;;;;20.75;13.13;;;;;;;22.04;70.15;98609.50;4931848;29;20075;-75
2021/08/12 04:57:35;;;;;;;21.35;13.32;;;;;;;22.05;70.19;98602.75;4935688;29;20662;-76
2021/08/12 05:00:04;;;;;;;18.77;12.67;;;;;;;22.14;69.64;98582.97;4913843;29;20056;-76
2021/08/12 05:02:32;;;;;;;19.60;12.82;;;;;;;22.20;69.57;98571.09;4917243;29;20048;-77
2021/08/12 05:04:58;;;;;;;15.15;10.00;;;;;;;22.19;69.12;98536.09;4916429;29;20055;-77
2021/08/12 05:07:24;;;;;;;20.10;12.85;;;;;;;22.36;69.10;98537.41;4915836;29;20051;-77
2021/08/12 05:09:51;;;;;;;19.67;13.10;;;;;;;22.42;69.04;98551.78;4930243;29;20063;-77
2021/08/12 05:12:19;;;;;;;17.95;12.85;;;;;;;22.48;69.06;98563.41;4916779;29;20044;-77
2021/08/12 05:14:48;;;;;;;14.80;9.40;;;;;;;22.60;68.43;98540.00;4900799;29;20043;-76
2021/08/12 05:17:18;;;;;;;17.73;9.82;;;;;;;22.69;68.16;98517.38;4918840;29;20055;-76
2021/08/12 05:19:44;;;;;;;21.23;13.02;;;;;;;22.66;67.97;98507.84;4897920;29;20497;-76
2021/08/12 05:22:11;;;;;;;17.75;10.73;;;;;;;22.79;67.95;98525.84;4930342;29;20110;-76
2021/08/12 05:24:38;;;;;;;20.45;14.07;;;;;;;22.75;68.34;98536.13;4933753;29;20111;-76
2021/08/12 05:27:06;;;;;;;22.42;13.85;;;;;;;22.65;68.40;98526.53;4914280;29;20516;-76
2021/08/12 05:29:33;;;;;;;24.27;14.55;;;;;;;22.64;68.49;98527.72;4915060;29;20082;-75
2021/08/12 05:32:00;;;;;;;18.40;12.70;;;;;;;22.70;68.16;98519.78;4922291;29;20048;-76
2021/08/12 05:34:31;;;;;;;20.50;13.98;;;;;;;22.73;68.35;98524.59;4912137;29;20048;-77
2021/08/12 05:37:01;;;;;;;22.08;15.85;;;;;;;22.59;68.67;98516.13;4908468;29;20048;-77
2021/08/12 05:39:27;;;;;;;24.38;17.23;;;;;;;22.53;69.19;98512.91;4915963;29;20118;-77
2021/08/12 05:41:54;;;;;;;;;;;;;;;22.57;69.35;98521.28;4901621;29;20043;-78
2021/08/12 05:44:20;;;;;;;23.70;17.10;;;;;;;22.55;69.22;98512.53;4936891;29;20002;-75
2021/08/12 05:46:46;;;;;;;22.80;13.90;;;;;;;22.64;68.75;98508.22;4912549;29;20643;-76
2021/08/12 05:49:12;;;;;;;29.17;20.60;;;;;;;22.75;68.57;98507.50;4932735;29;20126;-77
2021/08/12 05:51:40;;;;;;;33.30;21.67;;;;;;;22.76;68.43;98504.31;4931953;29;20051;-76
2021/08/12 05:54:11;;;;;;;35.53;25.10;;;;;;;22.77;68.86;98511.47;4916618;29;20056;-76
2021/08/12 05:56:37;;;;;;;41.38;25.33;;;;;;;22.72;68.69;98486.78;4935656;29;20056;-76
2021/08/12 05:59:04;;;;;;;33.97;24.50;;;;;;;22.94;68.14;98498.84;4935455;29;20531;-75
2021/08/12 06:01:32;;;;;;;41.50;26.02;;;;;;;22.81;68.17;98486.44;4931806;29;20513;-76
2021/08/12 06:04:00;;;;;;;44.25;31.23;;;;;;;22.79;68.69;98499.94;4935453;29;20043;-73
2021/08/12 06:06:29;;;;;;;47.72;34.35;;;;;;;22.83;68.89;98514.69;4919097;29;20532;-77
2021/08/12 06:08:57;;;;;;;46.13;33.85;;;;;;;22.94;69.01;98535.06;4936277;29;20497;-77
2021/08/12 06:11:26;;;;;;;41.20;29.95;;;;;;;22.91;68.94;98526.66;4901000;29;20469;-76
2021/08/12 06:13:52;;;;;;;44.60;32.70;;;;;;;22.94;68.61;98548.19;4932681;29;20060;-77
2021/08/12 06:16:18;;;;;;;51.92;34.33;;;;;;;22.91;68.44;98552.56;4950146;28;20051;-76
2021/08/12 06:18:45;;;;;;;52.15;34.72;;;;;;;22.94;68.97;98570.47;4936118;29;20654;-75
2021/08/12 06:21:14;;;;;;;44.90;33.40;;;;;;;22.98;69.21;98582.47;4918678;29;20044;-76
2021/08/12 06:23:42;;;;;;;44.60;32.78;;;;;;;22.86;68.87;98568.84;4939060;29;20054;-77
2021/08/12 06:26:10;;;;;;;44.55;32.88;;;;;;;23.03;68.83;98596.03;4918512;29;20058;-76
2021/08/12 06:28:37;;;;;;;44.88;30.88;;;;;;;23.03;68.70;98586.88;4921981;29;20059;-77
2021/08/12 06:31:03;;;;;;;40.70;28.27;;;;;;;23.13;68.38;98582.56;4920366;29;20052;-77
2021/08/12 06:33:32;;;;;;;45.63;29.45;;;;;;;23.00;68.15;98549.44;4936473;29;20047;-77
2021/08/12 06:36:00;;;;;;;42.28;29.38;;;;;;;23.15;68.49;98580.16;4919402;29;20071;-77
2021/08/12 06:38:26;;;;;;;41.30;31.50;;;;;;;23.08;68.72;98581.72;4936463;29;20115;-77
2021/08/12 06:40:52;;;;;;;38.83;31.35;;;;;;;23.09;68.66;98582.53;4914808;29;20051;-78
2021/08/12 06:43:20;;;;;;;46.40;31.30;;;;;;;23.06;68.78;98586.88;4919509;29;20067;-78
2021/08/12 06:45:59;;;;;;;41.45;30.63;;;;;;;22.94;68.99;98593.56;4917673;29;20142;-78
2021/08/12 06:48:26;;;;;;;45.60;30.30;;;;;;;22.94;68.92;98595.56;4909035;29;20143;-78
2021/08/12 06:50:54;;;;;;;38.70;29.45;;;;;;;22.77;69.13;98581.09;4935857;29;20188;-79
2021/08/12 06:53:21;;;;;;;;;;;;;;;22.86;69.28;98605.84;4905997;29;20104;-76
2021/08/12 06:55:47;;;;;;;38.87;28.03;;;;;;;22.78;69.08;98609.78;4920173;29;19927;-77
2021/08/12 06:58:13;;;;;;;43.57;28.27;;;;;;;22.84;68.94;98624.16;4938784;29;20084;-77
2021/08/12 07:00:46;;;;;;;38.00;27.05;;;;;;;22.71;69.63;98613.31;4934627;29;20058;-77
2021/08/12 07:03:14;;;;;;;38.70;26.38;;;;;;;22.68;69.72;98619.66;4918129;29;20039;-77
2021/08/12 07:05:45;;;;;;;39.85;25.38;;;;;;;22.68;69.79;98614.09;4906627;29;20425;-77
2021/08/12 07:08:11;;;;;;;34.03;21.67;;;;;;;22.60;69.46;98602.09;4894586;29;20052;-77
2021/08/12 07:10:38;;;;;;;43.67;23.03;;;;;;;22.70;69.57;98613.69;4912116;29;20075;-77
2021/08/12 07:13:04;;;;;;;32.27;21.80;;;;;;;22.77;69.52;98616.53;4938489;29;20315;-77
2021/08/12 07:15:32;;;;;;;34.78;22.20;;;;;;;22.74;69.52;98611.75;4938836;29;20090;-78
2021/08/12 07:18:01;;;;;;;30.52;21.35;;;;;;;22.85;69.50;98597.91;4904594;29;20056;-77
2021/08/12 07:20:27;;;;;;;34.60;21.40;;;;;;;22.91;69.46;98580.44;4911269;29;20181;-78
2021/08/12 07:22:55;;;;;;;35.22;20.00;;;;;;;22.88;68.90;98555.31;4924477;29;20047;-78
2021/08/12 07:25:25;;;;;;;22.17;15.25;;;;;;;23.08;68.57;98547.47;4924868;29;20040;-76
2021/08/12 07:27:51;;;;;;;20.90;14.95;;;;;;;23.18;67.97;98523.63;4945716;29;20070;-78
2021/08/12 07:30:19;;;;;;;30.52;20.88;;;;;;;23.34;67.90;98543.63;4949983;28;20112;-77
2021/08/12 07:32:48;;;;;;;30.13;19.97;;;;;;;23.37;68.29;98554.00;4908873;29;20092;-77
2021/08/12 07:35:18;;;;;;;28.08;20.77;;;;;;;23.33;68.31;98544.84;4946415;28;20051;-78
2021/08/12 07:37:44;;;;;;;22.23;14.93;;;;;;;23.42;68.11;98561.19;4940106;29;20050;-78
2021/08/12 07:40:12;;;;;;;29.13;20.23;;;;;;;23.45;67.71;98566.00;4938591;29;20171;-77
2021/08/12 07:42:38;;;;;;;33.30;22.10;;;;;;;23.28;68.41;98575.06;4933599;29;20117;-77
2021/08/12 07:45:06;;;;;;;34.92;23.92;;;;;;;23.26;68.13;98589.41;4939939;29;20051;-78
2021/08/12 07:47:33;;;;;;;;;;;;;;;23.25;68.41;98559.88;4939007;29;20055;-72
2021/08/12 07:49:59;;;;;;;34.60;22.35;;;;;;;23.27;68.26;98567.91;4940074;29;19926;-74
2021/08/12 07:52:27;;;;;;;33.55;22.98;;;;;;;23.28;68.38;98561.94;4897370;29;20062;-75
2021/08/12 07:54:53;;;;;;;39.28;24.20;;;;;;;23.30;68.17;98540.03;4901385;29;20429;-74
2021/08/12 07:57:19;;;;;;;32.75;21.23;;;;;;;23.38;68.00;98543.66;4933924;29;20429;-75
2021/08/12 07:59:45;;;;;;;31.42;22.95;;;;;;;23.34;68.27;98552.00;4927796;29;20044;-73
2021/08/12 08:02:11;;;;;;;37.27;24.53;;;;;;;23.40;68.42;98582.28;4954684;29;20044;-75
2021/08/12 08:04:37;;;;;;;38.60;23.40;;;;;;;23.40;68.46;98583.09;4955162;29;20039;-75
2021/08/12 08:07:04;;;;;;;38.28;21.75;;;;;;;23.39;68.30;98577.91;4922782;29;20051;-74
2021/08/12 08:09:31;;;;;;;39.93;24.20;;;;;;;23.33;68.26;98608.97;4956297;29;20055;-73
2021/08/12 08:11:57;;;;;;;31.65;24.02;;;;;;;23.23;68.54;98596.53;4956679;29;20107;-75
2021/08/12 08:14:23;;;;;;;36.47;26.02;;;;;;;23.25;68.68;98598.13;4957418;29;20043;-74
2021/08/12 08:16:49;;;;;;;33.37;25.07;;;;;;;23.28;68.13;98591.81;4950995;29;20054;-74
2021/08/12 08:19:16;;;;;;;34.00;24.30;;;;;;;23.35;68.21;98586.28;4914749;29;20052;-74
2021/08/12 08:21:42;;;;;;;29.55;21.92;;;;;;;23.44;67.79;98569.97;4937297;29;20054;-71
2021/08/12 08:24:09;;;;;;;30.15;22.17;;;;;;;23.48;67.70;98576.34;4927070;29;20044;-74
2021/08/12 08:26:36;;;;;;;37.75;26.20;;;;;;;23.55;67.71;98585.97;4933479;29;20517;-74
2021/08/12 08:29:02;;;;;;;41.30;25.45;;;;;;;23.57;67.51;98576.00;4935593;29;20102;-74
2021/08/12 08:31:33;;;;;;;37.03;26.85;;;;;;;23.55;67.70;98597.13;4927151;29;20363;-76
2021/08/12 08:33:59;;;;;;;39.03;26.15;;;;;;;23.53;67.24;98602.28;4923776;29;20048;-75
2021/08/12 08:36:26;;;;;;;40.77;27.27;;;;;;;23.40;68.00;98608.19;4915705;29;20103;-74
2021/08/12 08:38:53;;;;;;;45.45;33.08;;;;;;;23.30;68.41;98632.06;4918825;29;20122;-75
2021/08/12 08:41:19;;;;;;;48.72;36.53;;;;;;;23.01;69.36;98628.25;4932427;29;20904;-73
2021/08/12 08:43:49;;;;;;;61.25;37.20;;;;;;;22.88;70.16;98634.16;4925852;29;20502;-72
2021/08/12 08:46:16;;;;;;;50.50;36.95;;;;;;;22.82;70.29;98627.31;4914735;29;20054;-75
2021/08/12 08:48:44;;;;;;;;;;;;;;;22.75;70.50;98616.91;4933742;29;20520;-75
2021/08/12 08:51:15;;;;;;;47.38;33.03;;;;;;;22.82;70.17;98601.47;4917221;29;19931;-74
2021/08/12 08:53:44;;;;;;;45.22;34.38;;;;;;;23.01;69.79;98600.38;4917038;29;20501;-74
2021/08/12 08:56:10;;;;;;;44.95;35.70;;;;;;;23.06;69.80;98594.44;4925321;29;20052;-75
2021/08/12 08:58:40;;;;;;;47.43;33.80;;;;;;;23.11;69.46;98587.72;4926265;29;20063;-75
2021/08/12 09:01:07;;;;;;;48.38;34.45;;;;;;;23.18;69.37;98605.28;4915309;29;20323;-75
2021/08/12 09:03:34;;;;;;;45.00;34.35;;;;;;;23.17;69.51;98609.22;4933236;29;20071;-75
2021/08/12 09:06:11;;;;;;;49.58;37.20;;;;;;;23.11;69.71;98607.22;4917416;29;20043;-75
2021/08/12 09:08:47;;;;;;;49.47;36.35;;;;;;;23.14;69.34;98604.44;4932226;29;20428;-74
2021/08/12 09:11:20;;;;;;;49.92;34.47;;;;;;;23.26;69.11;98594.16;4931451;29;20162;-73
2021/08/12 09:13:46;;;;;;;44.72;31.20;;;;;;;23.33;68.77;98595.03;4933155;29;20047;-75
2021/08/12 09:16:34;;;;;;;50.65;32.25;;;;;;;23.31;68.91;98600.19;4923310;29;20536;-84
2021/08/12 09:19:19;;;;;;;50.42;32.95;;;;;;;23.37;68.92;98597.84;4935319;29;20570;-80
2021/08/12 09:21:46;;;;;;;50.42;33.47;;;;;;;23.35;68.86;98603.00;4935004;29;20553;-82
2021/08/12 09:24:12;;;;;;;55.65;35.95;;;;;;;23.34;69.04;98618.13;4934712;29;20126;-81
2021/08/12 09:26:41;;;;;;;49.97;35.33;;;;;;;23.31;69.51;98616.09;4933736;29;20067;-83
2021/08/12 09:29:26;;;;;;;51.63;35.83;;;;;;;23.18;69.19;98601.69;4919565;29;20074;-84
2021/08/12 09:32:01;;;;;;;47.25;34.35;;;;;;;23.23;69.05;98609.66;4924198;29;20140;-83
2021/08/12 09:34:42;;;;;;;;;;;;;;;23.22;69.31;98616.44;4926258;29;20095;-84
2021/08/12 09:37:15;;;;;;;50.00;36.13;;;;;;;23.07;69.25;98588.47;4910463;29;19933;-86
2021/08/12 09:39:46;;;;;;;54.38;36.03;;;;;;;23.26;68.99;98611.72;4918800;29;20505;-76
2021/08/12 09:42:13;;;;;;;47.08;34.22;;;;;;;23.38;69.19;98610.59;4932937;29;20500;-85
2021/08/12 09:44:42;;;;;;;43.25;33.50;;;;;;;23.46;69.13;98612.19;4918856;29;20500;-80
2021/08/12 09:47:12;;;;;;;50.03;35.13;;;;;;;23.56;68.81;98613.44;4934405;29;20052;-79
2021/08/12 09:49:44;;;;;;;51.20;34.83;;;;;;;23.60;68.95;98600.31;4940735;29;20040;-81
2021/08/12 09:52:18;;;;;;;48.40;35.45;;;;;;;23.60;69.16;98611.47;4936519;29;20057;-80
2021/08/12 09:54:59;;;;;;;51.58;35.50;;;;;;;23.69;69.01;98610.31;4928751;29;20051;-79
2021/08/12 09:57:34;;;;;;;51.05;36.22;;;;;;;23.69;69.26;98613.91;4935962;29;20048;-78
2021/08/12 10:00:00;;;;;;;57.60;36.50;;;;;;;23.67;69.27;98602.34;4921983;29;20138;-78
2021/08/12 10:02:31;;;;;;;42.93;33.30;;;;;;;23.78;69.30;98600.38;4943844;29;20058;-80
2021/08/12 10:05:05;;;;;;;49.67;33.85;;;;;;;23.86;69.25;98595.63;4942985;29;20134;-79
2021/08/12 10:07:38;;;;;;;45.83;32.35;;;;;;;23.92;69.13;98607.19;4948787;29;20464;-79
2021/08/12 10:10:10;;;;;;;46.83;33.60;;;;;;;23.83;69.08;98604.00;4937359;29;20059;-80
2021/08/12 10:12:36;;;;;;;50.63;33.05;;;;;;;23.72;69.03;98593.59;4939652;29;20062;-80
2021/08/12 10:15:02;;;;;;;42.58;33.03;;;;;;;23.86;68.60;98617.94;4940633;29;20047;-78
2021/08/12 10:17:31;;;;;;;49.95;34.50;;;;;;;23.84;68.52;98622.34;4925076;28;20070;-78
2021/08/12 10:19:57;;;;;;;45.45;34.00;;;;;;;23.82;68.13;98616.34;4938486;29;20064;-80
2021/08/12 10:22:23;;;;;;;46.22;34.80;;;;;;;23.82;67.91;98619.13;4951208;28;20028;-80
2021/08/12 10:24:50;;;;;;;45.75;33.03;;;;;;;23.77;67.93;98621.09;4935999;29;20415;-80
2021/08/12 10:27:16;;;;;;;44.65;34.25;;;;;;;23.67;67.78;98607.13;4929813;29;20271;-79
2021/08/12 10:29:45;;;;;;;48.88;33.50;;;;;;;23.70;68.26;98632.25;4921936;29;20585;-78
2021/08/12 10:32:16;;;;;;;42.05;31.90;;;;;;;23.64;68.53;98631.81;4932318;29;20551;-78
2021/08/12 10:34:44;;;;;;;42.92;31.00;;;;;;;23.68;68.36;98633.81;4917406;29;20075;-79
2021/08/12 10:37:10;;;;;;;44.13;30.88;;;;;;;23.62;68.52;98625.03;4938713;29;20091;-79
2021/08/12 10:39:38;;;;;;;44.90;30.27;;;;;;;23.70;68.66;98642.59;4930808;29;20138;-79
2021/08/12 10:42:06;;;;;;;41.67;30.42;;;;;;;23.69;68.80;98641.00;4933358;29;20055;-73
2021/08/12 10:44:32;;;;;;;42.05;30.27;;;;;;;23.60;68.77;98627.41;4931454;29;20076;-71
2021/08/12 10:46:58;;;;;;;43.92;30.27;;;;;;;23.42;69.22;98632.91;4926129;29;20103;-69
2021/08/12 10:49:28;;;;;;;40.30;30.08;;;;;;;23.35;69.16;98642.81;4927389;29;20047;-69
2021/08/12 10:52:04;;;;;;;45.67;31.55;;;;;;;23.33;69.38;98630.47;4931145;29;20134;-69
2021/08/12 10:54:32;;;;;;;41.15;29.63;;;;;;;23.39;69.55;98639.25;4933463;29;20051;-70
2021/08/12 10:57:16;;;;;;;41.35;31.20;;;;;;;23.44;68.88;98631.31;4912340;29;20123;-69
2021/08/12 10:59:43;;;;;;;44.60;31.90;;;;;;;23.50;68.56;98635.34;4938062;28;20059;-71
2021/08/12 11:02:42;;;;;;;45.70;31.60;;;;;;;23.55;68.77;98636.94;4934763;29;20187;-70
2021/08/12 11:05:09;;;;;;;39.33;31.27;;;;;;;23.49;68.13;98633.75;4943165;28;20410;-72
2021/08/12 11:07:50;;;;;;;44.95;31.55;;;;;;;23.47;68.29;98640.91;4950940;28;20058;-68
2021/08/12 11:10:17;;;;;;;44.55;30.65;;;;;;;23.44;68.42;98650.06;4896999;29;20075;-70
2021/08/12 11:13:03;;;;;;;42.80;32.83;;;;;;;23.42;68.61;98650.44;4928677;29;20123;-76
2021/08/12 11:15:57;;;;;;;42.63;34.28;;;;;;;23.31;68.78;98652.34;4930199;29;20432;-76
2021/08/12 11:18:43;;;;;;;51.85;35.78;;;;;;;23.05;69.40;98652.16;4919214;29;20075;-76
2021/08/12 11:21:59;;;;;;;45.90;33.20;;;;;;;23.04;69.29;98661.72;4929593;29;20508;-77
2021/08/12 11:24:53;;;;;;;47.83;34.13;;;;;;;22.62;69.81;98626.75;4913838;29;20504;-76
2021/08/12 11:27:36;;;;;;;47.03;32.88;;;;;;;22.59;69.62;98631.13;4936444;29;20050;-77
2021/08/12 11:30:45;;;;;;;48.13;33.90;;;;;;;22.71;70.04;98673.78;4937421;29;20583;-76
2021/08/12 11:33:45;;;;;;;48.17;32.83;;;;;;;22.72;70.03;98655.91;4916835;29;20044;-77